sensor_id;sensor_type;location;lat;lon;timestamp;temperature;humidity
53294;DHT22;39181;53.440;5.644;2023-12-28T00:02:21;8.90;99.90
53294;DHT22;39181;53.440;5.644;2023-12-28T00:04:47;8.60;99.90
53294;DHT22;39181;53.440;5.644;2023-12-28T00:07:13;8.40;99.90
53294;DHT22;39181;53.440;5.644;2023-12-28T00:09:38;8.40;99.90
53294;DHT22;39181;53.440;5.644;2023-12-28T00:12:04;8.40;99.90
53294;DHT22;39181;53.440;5.644;2023-12-28T00:14:30;8.50;99.90
53294;DHT22;39181;53.440;5.644;2023-12-28T00:16:56;8.80;99.90
53294;DHT22;39181;53.440;5.644;2023-12-28T00:19:21;8.60;99.90
53294;DHT22;39181;53.440;5.644;2023-12-28T00:21:47;8.40;99.90
53294;DHT22;39181;53.440;5.644;2023-12-28T00:24:13;8.90;99.90
53294;DHT22;39181;53.440;5.644;2023-12-28T00:26:39;8.40;99.90
53294;DHT22;39181;53.440;5.644;2023-12-28T00:29:04;8.50;99.90
53294;DHT22;39181;53.440;5.644;2023-12-28T00:31:30;8.40;99.90
53294;DHT22;39181;53.440;5.644;2023-12-28T00:33:55;8.80;99.90
53294;DHT22;39181;53.440;5.644;2023-12-28T00:36:21;8.60;99.90
53294;DHT22;39181;53.440;5.644;2023-12-28T00:38:46;8.50;99.90
53294;DHT22;39181;53.440;5.644;2023-12-28T00:41:12;8.80;99.90
53294;DHT22;39181;53.440;5.644;2023-12-28T00:43:37;8.80;99.90
53294;DHT22;39181;53.440;5.644;2023-12-28T00:46:03;8.80;99.90
53294;DHT22;39181;53.440;5.644;2023-12-28T00:48:29;8.30;99.90
53294;DHT22;39181;53.440;5.644;2023-12-28T00:50:54;8.20;99.90
53294;DHT22;39181;53.440;5.644;2023-12-28T00:53:20;8.60;99.90
53294;DHT22;39181;53.440;5.644;2023-12-28T00:55:46;8.10;99.90
53294;DHT22;39181;53.440;5.644;2023-12-28T00:58:11;8.20;99.90
53294;DHT22;39181;53.440;5.644;2023-12-28T01:00:37;8.10;99.90
53294;DHT22;39181;53.440;5.644;2023-12-28T01:03:03;8.30;99.90
53294;DHT22;39181;53.440;5.644;2023-12-28T01:05:28;8.60;99.90
53294;DHT22;39181;53.440;5.644;2023-12-28T01:07:54;8.60;99.90
53294;DHT22;39181;53.440;5.644;2023-12-28T01:10:19;8.20;99.90
53294;DHT22;39181;53.440;5.644;2023-12-28T01:12:45;8.50;99.90
53294;DHT22;39181;53.440;5.644;2023-12-28T01:15:10;8.00;99.90
53294;DHT22;39181;53.440;5.644;2023-12-28T01:17:36;7.90;99.90
53294;DHT22;39181;53.440;5.644;2023-12-28T01:20:02;7.90;99.90
53294;DHT22;39181;53.440;5.644;2023-12-28T01:22:29;8.50;99.90
53294;DHT22;39181;53.440;5.644;2023-12-28T01:24:54;8.40;99.90
53294;DHT22;39181;53.440;5.644;2023-12-28T01:27:20;8.40;99.90
53294;DHT22;39181;53.440;5.644;2023-12-28T01:29:45;8.40;99.90
53294;DHT22;39181;53.440;5.644;2023-12-28T01:32:11;8.00;99.90
53294;DHT22;39181;53.440;5.644;2023-12-28T01:34:36;8.40;99.90
53294;DHT22;39181;53.440;5.644;2023-12-28T01:37:02;8.20;99.90
53294;DHT22;39181;53.440;5.644;2023-12-28T01:39:28;8.20;99.90
53294;DHT22;39181;53.440;5.644;2023-12-28T01:41:53;7.90;99.90
53294;DHT22;39181;53.440;5.644;2023-12-28T01:44:19;8.40;99.90
53294;DHT22;39181;53.440;5.644;2023-12-28T01:46:45;8.10;99.90
53294;DHT22;39181;53.440;5.644;2023-12-28T01:49:12;8.10;99.90
53294;DHT22;39181;53.440;5.644;2023-12-28T01:51:38;7.90;99.90
53294;DHT22;39181;53.440;5.644;2023-12-28T01:54:05;8.00;99.90
53294;DHT22;39181;53.440;5.644;2023-12-28T01:56:31;7.80;99.90
53294;DHT22;39181;53.440;5.644;2023-12-28T01:58:56;7.90;99.90
53294;DHT22;39181;53.440;5.644;2023-12-28T02:01:22;8.40;99.90
53294;DHT22;39181;53.440;5.644;2023-12-28T02:03:48;8.40;99.90
53294;DHT22;39181;53.440;5.644;2023-12-28T02:06:14;7.90;99.90
53294;DHT22;39181;53.440;5.644;2023-12-28T02:08:44;8.40;99.90
53294;DHT22;39181;53.440;5.644;2023-12-28T02:11:10;7.90;99.90
53294;DHT22;39181;53.440;5.644;2023-12-28T02:13:36;8.40;99.90
53294;DHT22;39181;53.440;5.644;2023-12-28T02:16:28;7.90;99.90
53294;DHT22;39181;53.440;5.644;2023-12-28T02:19:00;7.90;99.90
53294;DHT22;39181;53.440;5.644;2023-12-28T02:21:29;8.10;99.90
53294;DHT22;39181;53.440;5.644;2023-12-28T02:23:57;8.30;99.90
53294;DHT22;39181;53.440;5.644;2023-12-28T02:26:22;8.50;99.90
53294;DHT22;39181;53.440;5.644;2023-12-28T02:28:48;8.00;99.90
53294;DHT22;39181;53.440;5.644;2023-12-28T02:31:21;8.50;99.90
53294;DHT22;39181;53.440;5.644;2023-12-28T02:33:53;8.00;99.90
53294;DHT22;39181;53.440;5.644;2023-12-28T02:36:23;8.60;99.90
53294;DHT22;39181;53.440;5.644;2023-12-28T02:38:49;8.50;99.90
53294;DHT22;39181;53.440;5.644;2023-12-28T02:41:17;8.20;99.90
53294;DHT22;39181;53.440;5.644;2023-12-28T02:43:43;8.10;99.90
53294;DHT22;39181;53.440;5.644;2023-12-28T02:46:08;8.30;99.90
53294;DHT22;39181;53.440;5.644;2023-12-28T02:48:34;8.60;99.90
53294;DHT22;39181;53.440;5.644;2023-12-28T02:50:59;8.20;99.90
53294;DHT22;39181;53.440;5.644;2023-12-28T02:53:25;8.60;99.90
53294;DHT22;39181;53.440;5.644;2023-12-28T02:55:50;8.40;99.90
53294;DHT22;39181;53.440;5.644;2023-12-28T02:58:16;8.20;99.90
53294;DHT22;39181;53.440;5.644;2023-12-28T03:00:41;8.70;99.90
53294;DHT22;39181;53.440;5.644;2023-12-28T03:03:07;8.80;99.90
53294;DHT22;39181;53.440;5.644;2023-12-28T03:05:33;8.30;99.90
53294;DHT22;39181;53.440;5.644;2023-12-28T03:07:58;8.60;99.90
53294;DHT22;39181;53.440;5.644;2023-12-28T03:10:24;8.60;99.90
53294;DHT22;39181;53.440;5.644;2023-12-28T03:12:49;8.60;99.90
53294;DHT22;39181;53.440;5.644;2023-12-28T03:15:15;8.60;99.90
53294;DHT22;39181;53.440;5.644;2023-12-28T03:17:40;8.90;99.90
53294;DHT22;39181;53.440;5.644;2023-12-28T03:20:07;8.50;99.90
53294;DHT22;39181;53.440;5.644;2023-12-28T03:22:33;8.70;99.90
53294;DHT22;39181;53.440;5.644;2023-12-28T03:24:58;8.60;99.90
53294;DHT22;39181;53.440;5.644;2023-12-28T03:27:24;8.60;99.90
53294;DHT22;39181;53.440;5.644;2023-12-28T03:29:49;8.70;99.90
53294;DHT22;39181;53.440;5.644;2023-12-28T03:32:15;9.00;99.90
53294;DHT22;39181;53.440;5.644;2023-12-28T03:34:41;8.70;99.90
53294;DHT22;39181;53.440;5.644;2023-12-28T03:37:06;9.20;99.90
53294;DHT22;39181;53.440;5.644;2023-12-28T03:39:32;8.80;99.90
53294;DHT22;39181;53.440;5.644;2023-12-28T03:41:58;8.90;99.90
53294;DHT22;39181;53.440;5.644;2023-12-28T03:44:24;9.30;99.90
53294;DHT22;39181;53.440;5.644;2023-12-28T03:46:50;8.90;99.90
53294;DHT22;39181;53.440;5.644;2023-12-28T03:49:20;9.30;99.90
53294;DHT22;39181;53.440;5.644;2023-12-28T03:51:46;9.30;99.90
53294;DHT22;39181;53.440;5.644;2023-12-28T03:54:12;9.40;99.90
53294;DHT22;39181;53.440;5.644;2023-12-28T03:56:38;9.00;99.90
53294;DHT22;39181;53.440;5.644;2023-12-28T03:59:06;9.00;99.90
53294;DHT22;39181;53.440;5.644;2023-12-28T04:01:32;9.30;99.90
53294;DHT22;39181;53.440;5.644;2023-12-28T04:03:58;9.30;99.90
53294;DHT22;39181;53.440;5.644;2023-12-28T04:06:24;9.20;99.90
53294;DHT22;39181;53.440;5.644;2023-12-28T04:08:49;9.30;99.90
53294;DHT22;39181;53.440;5.644;2023-12-28T04:11:15;9.20;99.90
53294;DHT22;39181;53.440;5.644;2023-12-28T04:13:40;9.20;99.90
53294;DHT22;39181;53.440;5.644;2023-12-28T04:16:06;9.20;99.90
53294;DHT22;39181;53.440;5.644;2023-12-28T04:18:32;8.80;99.90
53294;DHT22;39181;53.440;5.644;2023-12-28T04:20:58;9.20;99.90
53294;DHT22;39181;53.440;5.644;2023-12-28T04:23:24;9.30;99.90
53294;DHT22;39181;53.440;5.644;2023-12-28T04:25:49;8.90;99.90
53294;DHT22;39181;53.440;5.644;2023-12-28T04:28:15;9.10;99.90
53294;DHT22;39181;53.440;5.644;2023-12-28T04:30:40;9.30;99.90
53294;DHT22;39181;53.440;5.644;2023-12-28T04:33:06;9.10;99.90
53294;DHT22;39181;53.440;5.644;2023-12-28T04:35:32;9.30;99.90
53294;DHT22;39181;53.440;5.644;2023-12-28T04:37:57;9.00;99.90
53294;DHT22;39181;53.440;5.644;2023-12-28T04:40:23;9.00;99.90
53294;DHT22;39181;53.440;5.644;2023-12-28T04:42:48;9.30;99.90
53294;DHT22;39181;53.440;5.644;2023-12-28T04:45:14;8.90;99.90
53294;DHT22;39181;53.440;5.644;2023-12-28T04:47:40;9.20;99.90
53294;DHT22;39181;53.440;5.644;2023-12-28T04:50:06;8.90;99.90
53294;DHT22;39181;53.440;5.644;2023-12-28T04:52:32;9.30;99.90
53294;DHT22;39181;53.440;5.644;2023-12-28T04:54:58;9.30;99.90
53294;DHT22;39181;53.440;5.644;2023-12-28T04:57:24;8.90;99.90
53294;DHT22;39181;53.440;5.644;2023-12-28T04:59:49;8.90;99.90
53294;DHT22;39181;53.440;5.644;2023-12-28T05:02:15;9.30;99.90
53294;DHT22;39181;53.440;5.644;2023-12-28T05:04:41;8.90;99.90
53294;DHT22;39181;53.440;5.644;2023-12-28T05:07:06;8.90;99.90
53294;DHT22;39181;53.440;5.644;2023-12-28T05:09:32;9.20;99.90
53294;DHT22;39181;53.440;5.644;2023-12-28T05:11:58;9.30;99.90
53294;DHT22;39181;53.440;5.644;2023-12-28T05:14:23;8.90;99.90
53294;DHT22;39181;53.440;5.644;2023-12-28T05:16:49;8.90;99.90
53294;DHT22;39181;53.440;5.644;2023-12-28T05:19:14;9.30;99.90
53294;DHT22;39181;53.440;5.644;2023-12-28T05:21:40;9.30;99.90
53294;DHT22;39181;53.440;5.644;2023-12-28T05:24:06;9.30;99.90
53294;DHT22;39181;53.440;5.644;2023-12-28T05:26:31;9.20;99.90
53294;DHT22;39181;53.440;5.644;2023-12-28T05:28:57;9.00;99.90
53294;DHT22;39181;53.440;5.644;2023-12-28T05:31:22;9.30;99.90
53294;DHT22;39181;53.440;5.644;2023-12-28T05:33:48;8.90;99.90
53294;DHT22;39181;53.440;5.644;2023-12-28T05:36:13;9.30;99.90
53294;DHT22;39181;53.440;5.644;2023-12-28T05:38:39;9.30;99.90
53294;DHT22;39181;53.440;5.644;2023-12-28T05:41:05;8.90;99.90
53294;DHT22;39181;53.440;5.644;2023-12-28T05:43:30;9.10;99.90
53294;DHT22;39181;53.440;5.644;2023-12-28T05:45:56;8.80;99.90
53294;DHT22;39181;53.440;5.644;2023-12-28T05:48:21;9.20;99.90
53294;DHT22;39181;53.440;5.644;2023-12-28T05:50:47;8.80;99.90
53294;DHT22;39181;53.440;5.644;2023-12-28T05:53:12;9.30;99.90
53294;DHT22;39181;53.440;5.644;2023-12-28T05:55:40;9.00;99.90
53294;DHT22;39181;53.440;5.644;2023-12-28T05:58:06;8.80;99.90
53294;DHT22;39181;53.440;5.644;2023-12-28T06:00:32;9.20;99.90
53294;DHT22;39181;53.440;5.644;2023-12-28T06:02:57;9.10;99.90
53294;DHT22;39181;53.440;5.644;2023-12-28T06:05:23;9.20;99.90
53294;DHT22;39181;53.440;5.644;2023-12-28T06:07:48;9.00;99.90
53294;DHT22;39181;53.440;5.644;2023-12-28T06:10:14;9.10;99.90
53294;DHT22;39181;53.440;5.644;2023-12-28T06:12:40;8.80;99.90
53294;DHT22;39181;53.440;5.644;2023-12-28T06:15:06;9.00;99.90
53294;DHT22;39181;53.440;5.644;2023-12-28T06:17:32;8.90;99.90
53294;DHT22;39181;53.440;5.644;2023-12-28T06:19:57;9.00;99.90
53294;DHT22;39181;53.440;5.644;2023-12-28T06:22:23;9.20;99.90
53294;DHT22;39181;53.440;5.644;2023-12-28T06:24:55;9.30;99.90
53294;DHT22;39181;53.440;5.644;2023-12-28T06:27:21;9.40;99.90
53294;DHT22;39181;53.440;5.644;2023-12-28T06:29:47;9.10;99.90
53294;DHT22;39181;53.440;5.644;2023-12-28T06:32:12;9.40;99.90
53294;DHT22;39181;53.440;5.644;2023-12-28T06:34:38;9.20;99.90
53294;DHT22;39181;53.440;5.644;2023-12-28T06:37:03;8.90;99.90
53294;DHT22;39181;53.440;5.644;2023-12-28T06:39:29;9.00;99.90
53294;DHT22;39181;53.440;5.644;2023-12-28T06:41:55;9.10;99.90
53294;DHT22;39181;53.440;5.644;2023-12-28T06:44:20;9.40;99.90
53294;DHT22;39181;53.440;5.644;2023-12-28T06:46:46;9.00;99.90
53294;DHT22;39181;53.440;5.644;2023-12-28T06:49:11;9.10;99.90
53294;DHT22;39181;53.440;5.644;2023-12-28T06:51:37;9.00;99.90
53294;DHT22;39181;53.440;5.644;2023-12-28T06:54:02;9.40;99.90
53294;DHT22;39181;53.440;5.644;2023-12-28T06:56:28;9.20;99.90
53294;DHT22;39181;53.440;5.644;2023-12-28T06:58:54;9.40;99.90
53294;DHT22;39181;53.440;5.644;2023-12-28T07:01:19;9.30;99.90
53294;DHT22;39181;53.440;5.644;2023-12-28T07:03:45;9.20;99.90
53294;DHT22;39181;53.440;5.644;2023-12-28T07:06:10;9.00;99.90
53294;DHT22;39181;53.440;5.644;2023-12-28T07:08:36;9.00;99.90
53294;DHT22;39181;53.440;5.644;2023-12-28T07:11:02;9.30;99.90
53294;DHT22;39181;53.440;5.644;2023-12-28T07:13:28;9.30;99.90
53294;DHT22;39181;53.440;5.644;2023-12-28T07:15:54;9.30;99.90
53294;DHT22;39181;53.440;5.644;2023-12-28T07:18:20;9.10;99.90
53294;DHT22;39181;53.440;5.644;2023-12-28T07:20:45;9.50;99.90
53294;DHT22;39181;53.440;5.644;2023-12-28T07:23:11;9.50;99.90
53294;DHT22;39181;53.440;5.644;2023-12-28T07:25:37;9.20;99.90
53294;DHT22;39181;53.440;5.644;2023-12-28T07:28:02;9.40;99.90
53294;DHT22;39181;53.440;5.644;2023-12-28T07:30:28;9.70;99.90
53294;DHT22;39181;53.440;5.644;2023-12-28T07:32:54;9.70;99.90
53294;DHT22;39181;53.440;5.644;2023-12-28T07:35:20;9.50;99.90
53294;DHT22;39181;53.440;5.644;2023-12-28T07:37:46;9.40;99.90
53294;DHT22;39181;53.440;5.644;2023-12-28T07:40:12;9.70;99.90
53294;DHT22;39181;53.440;5.644;2023-12-28T07:42:38;9.80;99.90
53294;DHT22;39181;53.440;5.644;2023-12-28T07:45:04;9.90;99.90
53294;DHT22;39181;53.440;5.644;2023-12-28T07:47:30;9.80;99.90
53294;DHT22;39181;53.440;5.644;2023-12-28T07:49:56;9.50;99.90
53294;DHT22;39181;53.440;5.644;2023-12-28T07:52:22;9.70;99.90
53294;DHT22;39181;53.440;5.644;2023-12-28T07:54:47;9.60;99.90
53294;DHT22;39181;53.440;5.644;2023-12-28T07:57:13;9.50;99.90
53294;DHT22;39181;53.440;5.644;2023-12-28T07:59:39;9.60;99.90
53294;DHT22;39181;53.440;5.644;2023-12-28T08:02:05;9.90;99.90
53294;DHT22;39181;53.440;5.644;2023-12-28T08:04:31;9.60;99.90
53294;DHT22;39181;53.440;5.644;2023-12-28T08:06:58;9.90;99.90
53294;DHT22;39181;53.440;5.644;2023-12-28T08:09:23;9.60;99.90
53294;DHT22;39181;53.440;5.644;2023-12-28T08:11:49;10.00;99.90
53294;DHT22;39181;53.440;5.644;2023-12-28T08:14:14;9.60;99.90
53294;DHT22;39181;53.440;5.644;2023-12-28T08:16:40;9.80;99.90
53294;DHT22;39181;53.440;5.644;2023-12-28T08:19:06;9.80;99.90
53294;DHT22;39181;53.440;5.644;2023-12-28T08:21:31;9.50;99.90
53294;DHT22;39181;53.440;5.644;2023-12-28T08:23:57;9.70;99.90
53294;DHT22;39181;53.440;5.644;2023-12-28T08:26:23;9.60;99.90
53294;DHT22;39181;53.440;5.644;2023-12-28T08:28:48;9.80;99.90
53294;DHT22;39181;53.440;5.644;2023-12-28T08:31:14;9.90;99.90
53294;DHT22;39181;53.440;5.644;2023-12-28T08:33:40;9.80;99.90
53294;DHT22;39181;53.440;5.644;2023-12-28T08:36:09;9.80;99.90
53294;DHT22;39181;53.440;5.644;2023-12-28T08:38:35;9.50;99.90
53294;DHT22;39181;53.440;5.644;2023-12-28T08:41:00;9.70;99.90
53294;DHT22;39181;53.440;5.644;2023-12-28T08:43:29;9.70;99.90
53294;DHT22;39181;53.440;5.644;2023-12-28T08:45:54;9.50;99.90
53294;DHT22;39181;53.440;5.644;2023-12-28T08:48:20;9.50;99.90
53294;DHT22;39181;53.440;5.644;2023-12-28T08:50:46;9.50;99.90
53294;DHT22;39181;53.440;5.644;2023-12-28T08:53:11;9.50;99.90
53294;DHT22;39181;53.440;5.644;2023-12-28T08:55:37;9.40;99.90
53294;DHT22;39181;53.440;5.644;2023-12-28T08:58:02;9.40;99.90
53294;DHT22;39181;53.440;5.644;2023-12-28T09:00:28;9.90;99.90
53294;DHT22;39181;53.440;5.644;2023-12-28T09:02:53;9.70;99.90
53294;DHT22;39181;53.440;5.644;2023-12-28T09:05:19;9.80;99.90
53294;DHT22;39181;53.440;5.644;2023-12-28T09:07:44;9.70;99.90
53294;DHT22;39181;53.440;5.644;2023-12-28T09:10:11;9.70;99.90
53294;DHT22;39181;53.440;5.644;2023-12-28T09:12:37;9.80;99.90
53294;DHT22;39181;53.440;5.644;2023-12-28T09:15:04;10.00;99.90
53294;DHT22;39181;53.440;5.644;2023-12-28T09:17:30;9.70;99.90
53294;DHT22;39181;53.440;5.644;2023-12-28T09:19:56;9.90;99.90
53294;DHT22;39181;53.440;5.644;2023-12-28T09:22:23;9.60;99.90
53294;DHT22;39181;53.440;5.644;2023-12-28T09:24:49;9.60;99.90
53294;DHT22;39181;53.440;5.644;2023-12-28T09:27:14;9.70;99.90
53294;DHT22;39181;53.440;5.644;2023-12-28T09:29:40;9.60;99.90
53294;DHT22;39181;53.440;5.644;2023-12-28T09:32:05;10.00;99.90
53294;DHT22;39181;53.440;5.644;2023-12-28T09:34:31;10.10;99.90
53294;DHT22;39181;53.440;5.644;2023-12-28T09:36:57;9.80;99.90
53294;DHT22;39181;53.440;5.644;2023-12-28T09:39:22;10.20;99.90
53294;DHT22;39181;53.440;5.644;2023-12-28T09:41:58;10.10;99.90
53294;DHT22;39181;53.440;5.644;2023-12-28T09:44:26;9.90;99.90
53294;DHT22;39181;53.440;5.644;2023-12-28T09:46:53;10.20;99.90
53294;DHT22;39181;53.440;5.644;2023-12-28T09:49:21;10.30;99.90
53294;DHT22;39181;53.440;5.644;2023-12-28T09:51:47;9.90;99.90
53294;DHT22;39181;53.440;5.644;2023-12-28T09:54:13;10.10;99.90
53294;DHT22;39181;53.440;5.644;2023-12-28T09:56:40;10.30;99.90
53294;DHT22;39181;53.440;5.644;2023-12-28T09:59:06;10.20;99.90
53294;DHT22;39181;53.440;5.644;2023-12-28T10:01:34;10.40;99.90
53294;DHT22;39181;53.440;5.644;2023-12-28T10:04:00;10.20;99.90
53294;DHT22;39181;53.440;5.644;2023-12-28T10:06:26;10.30;99.90
53294;DHT22;39181;53.440;5.644;2023-12-28T10:08:51;10.40;99.90
53294;DHT22;39181;53.440;5.644;2023-12-28T10:11:18;10.10;99.90
53294;DHT22;39181;53.440;5.644;2023-12-28T10:13:44;10.20;99.90
53294;DHT22;39181;53.440;5.644;2023-12-28T10:16:11;10.20;99.90
53294;DHT22;39181;53.440;5.644;2023-12-28T10:18:43;10.10;99.90
53294;DHT22;39181;53.440;5.644;2023-12-28T10:21:09;10.40;99.90
53294;DHT22;39181;53.440;5.644;2023-12-28T10:23:35;10.40;99.90
53294;DHT22;39181;53.440;5.644;2023-12-28T10:26:00;10.10;99.90
53294;DHT22;39181;53.440;5.644;2023-12-28T10:28:27;10.50;99.90
53294;DHT22;39181;53.440;5.644;2023-12-28T10:30:56;10.10;99.90
53294;DHT22;39181;53.440;5.644;2023-12-28T10:33:22;10.40;99.90
53294;DHT22;39181;53.440;5.644;2023-12-28T10:35:50;10.50;99.90
53294;DHT22;39181;53.440;5.644;2023-12-28T10:38:16;10.50;99.90
53294;DHT22;39181;53.440;5.644;2023-12-28T10:40:46;10.10;99.90
53294;DHT22;39181;53.440;5.644;2023-12-28T10:43:17;10.10;99.90
53294;DHT22;39181;53.440;5.644;2023-12-28T10:45:47;10.10;99.90
53294;DHT22;39181;53.440;5.644;2023-12-28T10:48:27;10.20;99.90
53294;DHT22;39181;53.440;5.644;2023-12-28T10:50:54;10.40;99.90
53294;DHT22;39181;53.440;5.644;2023-12-28T10:53:51;10.50;99.90
53294;DHT22;39181;53.440;5.644;2023-12-28T10:56:35;10.10;99.90
53294;DHT22;39181;53.440;5.644;2023-12-28T10:59:17;10.30;99.90
53294;DHT22;39181;53.440;5.644;2023-12-28T11:01:48;10.30;99.90
53294;DHT22;39181;53.440;5.644;2023-12-28T11:04:30;10.50;99.90
53294;DHT22;39181;53.440;5.644;2023-12-28T11:06:58;10.30;99.90
53294;DHT22;39181;53.440;5.644;2023-12-28T11:09:26;10.20;99.90
53294;DHT22;39181;53.440;5.644;2023-12-28T11:11:53;10.40;99.90
53294;DHT22;39181;53.440;5.644;2023-12-28T11:14:19;10.10;99.90
53294;DHT22;39181;53.440;5.644;2023-12-28T11:16:45;10.10;99.90
53294;DHT22;39181;53.440;5.644;2023-12-28T11:19:12;10.00;99.90
53294;DHT22;39181;53.440;5.644;2023-12-28T11:21:38;10.40;99.90
53294;DHT22;39181;53.440;5.644;2023-12-28T11:24:04;10.30;99.90
53294;DHT22;39181;53.440;5.644;2023-12-28T11:26:30;10.20;99.90
53294;DHT22;39181;53.440;5.644;2023-12-28T11:29:03;10.30;99.90
53294;DHT22;39181;53.440;5.644;2023-12-28T11:31:32;10.40;99.90
53294;DHT22;39181;53.440;5.644;2023-12-28T11:33:58;10.40;99.90
53294;DHT22;39181;53.440;5.644;2023-12-28T11:36:37;10.10;99.90
53294;DHT22;39181;53.440;5.644;2023-12-28T11:39:06;10.20;99.90
53294;DHT22;39181;53.440;5.644;2023-12-28T11:41:36;10.10;99.90
53294;DHT22;39181;53.440;5.644;2023-12-28T11:44:02;10.40;99.90
53294;DHT22;39181;53.440;5.644;2023-12-28T11:46:30;10.40;99.90
53294;DHT22;39181;53.440;5.644;2023-12-28T11:49:06;10.10;99.90
53294;DHT22;39181;53.440;5.644;2023-12-28T11:51:35;10.00;99.90
53294;DHT22;39181;53.440;5.644;2023-12-28T11:54:03;10.10;99.90
53294;DHT22;39181;53.440;5.644;2023-12-28T11:56:32;10.40;99.90
53294;DHT22;39181;53.440;5.644;2023-12-28T11:58:59;10.50;99.90
53294;DHT22;39181;53.440;5.644;2023-12-28T12:01:25;10.00;99.90
53294;DHT22;39181;53.440;5.644;2023-12-28T12:03:50;10.50;99.90
53294;DHT22;39181;53.440;5.644;2023-12-28T12:06:16;10.40;99.90
53294;DHT22;39181;53.440;5.644;2023-12-28T12:08:45;10.10;99.90
53294;DHT22;39181;53.440;5.644;2023-12-28T12:11:12;10.10;99.90
53294;DHT22;39181;53.440;5.644;2023-12-28T12:13:38;10.20;99.90
53294;DHT22;39181;53.440;5.644;2023-12-28T12:16:04;10.30;99.90
53294;DHT22;39181;53.440;5.644;2023-12-28T12:18:32;10.10;99.90
53294;DHT22;39181;53.440;5.644;2023-12-28T12:20:57;10.10;99.90
53294;DHT22;39181;53.440;5.644;2023-12-28T12:23:24;10.60;99.90
53294;DHT22;39181;53.440;5.644;2023-12-28T12:25:49;10.20;99.90
53294;DHT22;39181;53.440;5.644;2023-12-28T12:28:15;10.20;99.90
53294;DHT22;39181;53.440;5.644;2023-12-28T12:30:48;10.20;99.90
53294;DHT22;39181;53.440;5.644;2023-12-28T12:33:15;10.20;99.90
53294;DHT22;39181;53.440;5.644;2023-12-28T12:35:40;10.40;99.90
53294;DHT22;39181;53.440;5.644;2023-12-28T12:38:06;10.10;99.90
53294;DHT22;39181;53.440;5.644;2023-12-28T12:40:32;10.10;99.90
53294;DHT22;39181;53.440;5.644;2023-12-28T12:43:00;10.40;99.90
53294;DHT22;39181;53.440;5.644;2023-12-28T12:45:25;10.30;99.90
53294;DHT22;39181;53.440;5.644;2023-12-28T12:47:51;10.40;99.90
53294;DHT22;39181;53.440;5.644;2023-12-28T12:50:17;10.10;99.90
53294;DHT22;39181;53.440;5.644;2023-12-28T12:52:43;10.00;99.90
53294;DHT22;39181;53.440;5.644;2023-12-28T12:55:12;10.00;99.90
53294;DHT22;39181;53.440;5.644;2023-12-28T12:57:38;9.90;99.90
53294;DHT22;39181;53.440;5.644;2023-12-28T13:00:05;10.30;99.90
53294;DHT22;39181;53.440;5.644;2023-12-28T13:02:34;10.00;99.90
53294;DHT22;39181;53.440;5.644;2023-12-28T13:05:02;10.30;99.90
53294;DHT22;39181;53.440;5.644;2023-12-28T13:07:28;10.10;99.90
53294;DHT22;39181;53.440;5.644;2023-12-28T13:09:53;10.30;99.90
53294;DHT22;39181;53.440;5.644;2023-12-28T13:12:19;9.80;99.90
53294;DHT22;39181;53.440;5.644;2023-12-28T13:14:45;10.20;99.90
53294;DHT22;39181;53.440;5.644;2023-12-28T13:17:11;9.90;99.90
53294;DHT22;39181;53.440;5.644;2023-12-28T13:19:37;9.90;99.90
53294;DHT22;39181;53.440;5.644;2023-12-28T13:22:03;10.20;99.90
53294;DHT22;39181;53.440;5.644;2023-12-28T13:24:30;10.00;99.90
53294;DHT22;39181;53.440;5.644;2023-12-28T13:26:56;9.80;99.90
53294;DHT22;39181;53.440;5.644;2023-12-28T13:29:22;10.10;99.90
53294;DHT22;39181;53.440;5.644;2023-12-28T13:31:48;9.80;99.90
53294;DHT22;39181;53.440;5.644;2023-12-28T13:34:16;9.70;99.90
53294;DHT22;39181;53.440;5.644;2023-12-28T13:36:42;9.70;99.90
53294;DHT22;39181;53.440;5.644;2023-12-28T13:39:07;10.10;99.90
53294;DHT22;39181;53.440;5.644;2023-12-28T13:41:37;10.10;99.90
53294;DHT22;39181;53.440;5.644;2023-12-28T13:44:03;10.10;99.90
53294;DHT22;39181;53.440;5.644;2023-12-28T13:46:38;10.10;99.90
53294;DHT22;39181;53.440;5.644;2023-12-28T13:49:04;9.80;99.90
53294;DHT22;39181;53.440;5.644;2023-12-28T13:51:31;10.00;99.90
53294;DHT22;39181;53.440;5.644;2023-12-28T13:53:58;9.60;99.90
53294;DHT22;39181;53.440;5.644;2023-12-28T13:56:24;9.70;99.90
53294;DHT22;39181;53.440;5.644;2023-12-28T13:58:49;10.10;99.90
53294;DHT22;39181;53.440;5.644;2023-12-28T14:01:15;10.10;99.90
53294;DHT22;39181;53.440;5.644;2023-12-28T14:03:41;9.70;99.90
53294;DHT22;39181;53.440;5.644;2023-12-28T14:06:06;10.00;99.90
53294;DHT22;39181;53.440;5.644;2023-12-28T14:08:32;10.00;99.90
53294;DHT22;39181;53.440;5.644;2023-12-28T14:10:58;10.10;99.90
53294;DHT22;39181;53.440;5.644;2023-12-28T14:13:23;9.80;99.90
53294;DHT22;39181;53.440;5.644;2023-12-28T14:15:49;9.70;99.90
53294;DHT22;39181;53.440;5.644;2023-12-28T14:18:14;9.70;99.90
53294;DHT22;39181;53.440;5.644;2023-12-28T14:20:40;9.80;99.90
53294;DHT22;39181;53.440;5.644;2023-12-28T14:23:06;9.60;99.90
53294;DHT22;39181;53.440;5.644;2023-12-28T14:25:32;9.80;99.90
53294;DHT22;39181;53.440;5.644;2023-12-28T14:27:58;10.00;99.90
53294;DHT22;39181;53.440;5.644;2023-12-28T14:30:26;9.60;99.90
53294;DHT22;39181;53.440;5.644;2023-12-28T14:32:52;10.00;99.90
53294;DHT22;39181;53.440;5.644;2023-12-28T14:35:18;9.60;99.90
53294;DHT22;39181;53.440;5.644;2023-12-28T14:37:44;9.90;99.90
53294;DHT22;39181;53.440;5.644;2023-12-28T14:40:10;9.80;99.90
53294;DHT22;39181;53.440;5.644;2023-12-28T14:42:37;9.40;99.90
53294;DHT22;39181;53.440;5.644;2023-12-28T14:45:03;9.70;99.90
53294;DHT22;39181;53.440;5.644;2023-12-28T14:47:29;9.80;99.90
53294;DHT22;39181;53.440;5.644;2023-12-28T14:49:55;9.70;99.90
53294;DHT22;39181;53.440;5.644;2023-12-28T14:52:22;9.50;99.90
53294;DHT22;39181;53.440;5.644;2023-12-28T14:54:48;9.40;99.90
53294;DHT22;39181;53.440;5.644;2023-12-28T14:57:16;9.50;99.90
53294;DHT22;39181;53.440;5.644;2023-12-28T14:59:42;9.50;99.90
53294;DHT22;39181;53.440;5.644;2023-12-28T15:02:07;9.80;99.90
53294;DHT22;39181;53.440;5.644;2023-12-28T15:04:33;9.60;99.90
53294;DHT22;39181;53.440;5.644;2023-12-28T15:07:00;9.30;99.90
53294;DHT22;39181;53.440;5.644;2023-12-28T15:09:25;9.70;99.90
53294;DHT22;39181;53.440;5.644;2023-12-28T15:11:51;9.60;99.90
53294;DHT22;39181;53.440;5.644;2023-12-28T15:14:17;9.50;99.90
53294;DHT22;39181;53.440;5.644;2023-12-28T15:16:43;9.70;99.90
53294;DHT22;39181;53.440;5.644;2023-12-28T15:19:09;9.60;99.90
53294;DHT22;39181;53.440;5.644;2023-12-28T15:21:36;9.20;99.90
53294;DHT22;39181;53.440;5.644;2023-12-28T15:24:02;9.20;99.90
53294;DHT22;39181;53.440;5.644;2023-12-28T15:26:27;9.40;99.90
53294;DHT22;39181;53.440;5.644;2023-12-28T15:28:53;9.20;99.90
53294;DHT22;39181;53.440;5.644;2023-12-28T15:31:19;9.30;99.90
53294;DHT22;39181;53.440;5.644;2023-12-28T15:33:44;9.20;99.90
53294;DHT22;39181;53.440;5.644;2023-12-28T15:36:10;9.60;99.90
53294;DHT22;39181;53.440;5.644;2023-12-28T15:38:36;9.20;99.90